Terminal Aerodrome Forecast
Issued by NWS

Home | Current Version | Previous Version | Text Only | Print | Product List | Glossary On
Versions: 1 2 3 4 5 6 7 8 9 10 11 12 13
000
FTUS46 KMTR 201128
TAFOAK
TAF
KOAK 201128Z 2012/2118 27004KT P6SM FEW024
      TEMPO 2013/2017 BKN022
     FM201700 25008KT P6SM FEW028
     FM202100 27013KT P6SM FEW012 SCT100
     FM210200 26017G23KT P6SM FEW015 BKN150
     FM211000 27010KT P6SM FEW012 SCT150
     FM211400 30007KT P6SM FEW012=

USA.gov is the U.S. government's official web portal to all federal, state and local government web resources and services.